Time;durP1;ratioP1;P1;durP2;ratioP2;P2;SDS_P1;SDS_P2;PMS_P1;PMS_P2;Temp;Humidity;BMP_temperature;BMP_pressure;BME280_temperature;BME280_humidity;BME280_pressure;Samples;Min_cycle;Max_cycle;Signal;HPM_P1;HPM_P2
2021/11/19 00:02:42;;;;;;;24.70;11.70;;;;;;;9.05;100.00;101765.91;102928;1320;74941;-82
2021/11/19 00:06:10;;;;;;;23.70;10.30;;;;;;;9.06;100.00;101770.77;102712;1316;70379;-78
2021/11/19 00:09:38;;;;;;;27.40;11.30;;;;;;;9.06;100.00;101768.61;103240;1317;73830;-81
2021/11/19 00:12:13;;;;;;;24.80;11.40;;;;;;;9.09;100.00;101773.31;103491;1315;63217;-77
2021/11/19 00:15:07;;;;;;;;;;;;;;;;;;;;;
2021/11/19 00:17:54;;;;;;;24.50;11.00;;;;;;;9.13;100.00;101768.52;102767;1317;76166;-78
2021/11/19 00:21:05;;;;;;;21.10;11.00;;;;;;;9.15;100.00;101768.20;102867;1317;72475;-78
2021/11/19 00:24:12;;;;;;;;;;;;;;;;;;;;;
2021/11/19 00:27:37;;;;;;;;;;;;;;;;;;;;;
2021/11/19 00:30:56;;;;;;;;;;;;;;;;;;;;;
2021/11/19 00:34:30;;;;;;;20.90;9.30;;;;;;;9.21;100.00;101769.79;102528;1319;74703;-77
2021/11/19 00:37:50;;;;;;;;;;;;;;;;;;;;;
2021/11/19 00:41:31;;;;;;;17.80;8.10;;;;;;;9.28;100.00;101774.26;103968;1316;72581;-79
2021/11/19 00:44:48;;;;;;;15.80;8.70;;;;;;;9.31;100.00;101764.95;102781;1317;63235;-78
2021/11/19 00:48:15;;;;;;;15.10;7.40;;;;;;;9.34;100.00;101774.05;102519;1316;62103;-76
2021/11/19 00:51:27;;;;;;;23.10;9.10;;;;;;;9.35;100.00;101778.20;102882;1318;74084;-78
2021/11/19 00:55:01;;;;;;;14.70;7.80;;;;;;;9.38;100.00;101771.41;102565;1318;71544;-79
2021/11/19 00:58:18;;;;;;;16.90;9.40;;;;;;;9.40;100.00;101773.30;102932;1317;75171;-78
2021/11/19 01:01:14;;;;;;;19.20;10.00;;;;;;;9.43;100.00;101783.34;102353;1316;61270;-77
2021/11/19 01:03:56;;;;;;;19.00;9.10;;;;;;;9.45;100.00;101779.96;102421;1319;61364;-78
2021/11/19 01:06:57;;;;;;;17.50;9.60;;;;;;;9.47;100.00;101781.71;102473;1316;75356;-78
2021/11/19 01:09:42;;;;;;;16.00;7.60;;;;;;;9.48;100.00;101783.52;102779;1315;72607;-77
2021/11/19 01:12:15;;;;;;;;;;;;;;;9.49;100.00;101786.98;102452;1318;74096;-76
2021/11/19 01:15:19;;;;;;;16.40;8.50;;;;;;;9.51;100.00;101786.84;103906;1315;63536;-76
2021/11/19 01:18:34;;;;;;;15.60;8.90;;;;;;;9.51;100.00;101794.06;102841;1316;60555;-81
2021/11/19 01:21:40;;;;;;;;;;;;;;;;;;;;;
2021/11/19 01:24:15;;;;;;;18.10;10.20;;;;;;;9.53;100.00;101801.84;102974;1315;71384;-77
2021/11/19 01:27:23;;;;;;;;;;;;;;;9.53;100.00;101809.60;102918;1313;75908;-78
2021/11/19 01:30:30;;;;;;;;;;;;;;;9.52;100.00;101807.16;103334;1316;62462;-78
2021/11/19 01:33:37;;;;;;;;;;;;;;;9.50;100.00;101807.54;103395;1315;61531;-77
2021/11/19 01:36:24;;;;;;;;;;;;;;;9.49;100.00;101804.09;103301;1317;74979;-78
2021/11/19 01:39:24;;;;;;;20.00;10.60;;;;;;;9.48;100.00;101800.50;102714;1316;71682;-78
2021/11/19 01:42:24;;;;;;;14.80;8.60;;;;;;;9.47;100.00;101798.80;102480;1316;71954;-78
2021/11/19 01:45:32;;;;;;;;;;;;;;;;;;;;;
2021/11/19 01:49:01;;;;;;;20.50;10.60;;;;;;;9.50;100.00;101808.97;102635;1316;61834;-80
2021/11/19 01:52:24;;;;;;;21.80;10.20;;;;;;;9.50;100.00;101806.67;103696;1316;76568;-77
2021/11/19 01:55:39;;;;;;;;;;;;;;;;;;;;;
2021/11/19 02:02:30;;;;;;;19.50;10.10;;;;;;;9.49;100.00;101801.46;102677;1316;63974;-76
2021/11/19 02:04:51;;;;;;;;;;;;;;;;;;;;;
2021/11/19 02:07:49;;;;;;;;;;;;;;;;;;;;;
2021/11/19 02:11:18;;;;;;;;;;;;;;;;;;;;;
2021/11/19 02:15:32;;;;;;;17.10;10.30;;;;;;;9.46;100.00;101805.09;102708;1316;74070;-78
2021/11/19 02:18:26;;;;;;;;;;;;;;;;;;;;;
2021/11/19 02:21:56;;;;;;;18.20;9.90;;;;;;;9.46;100.00;101789.98;102612;1316;60887;-80
2021/11/19 02:25:24;;;;;;;;;;;;;;;;;;;;;
2021/11/19 02:28:48;;;;;;;;;;;;;;;;;;;;;
2021/11/19 02:32:17;;;;;;;13.80;8.10;;;;;;;9.45;100.00;101791.59;102724;1315;72982;-78
2021/11/19 02:35:33;;;;;;;;;;;;;;;;;;;;;
2021/11/19 02:38:46;;;;;;;14.90;9.40;;;;;;;9.47;100.00;101779.76;102735;1313;61199;-77
2021/11/19 02:41:45;;;;;;;15.70;9.00;;;;;;;9.48;100.00;101780.20;102704;1316;74949;-76
2021/11/19 02:44:55;;;;;;;;;;;;;;;;;;;;;
2021/11/19 02:48:07;;;;;;;14.20;8.60;;;;;;;9.49;100.00;101771.98;102718;1315;73144;-76
2021/11/19 02:50:44;;;;;;;;;;;;;;;;;;;;;
2021/11/19 02:53:57;;;;;;;17.10;9.50;;;;;;;9.51;100.00;101770.92;102805;1315;62223;-80
2021/11/19 02:57:03;;;;;;;13.90;8.60;;;;;;;9.52;100.00;101770.16;102862;1312;75154;-77
2021/11/19 03:00:22;;;;;;;;;;;;;;;;;;;;;
2021/11/19 03:03:41;;;;;;;14.80;9.50;;;;;;;9.49;100.00;101764.89;102626;1315;71396;-77
2021/11/19 03:07:09;;;;;;;14.30;8.30;;;;;;;9.50;100.00;101774.02;103020;1315;63261;-80
2021/11/19 03:10:20;;;;;;;12.00;8.10;;;;;;;9.50;100.00;101774.70;102572;1315;61280;-80
2021/11/19 03:13:38;;;;;;;;;;;;;;;;;;;;;
2021/11/19 03:16:47;;;;;;;16.40;7.50;;;;;;;9.52;100.00;101774.38;102982;1318;71643;-78
2021/11/19 03:20:15;;;;;;;11.50;6.10;;;;;;;9.54;100.00;101771.54;102791;1315;73997;-76
2021/11/19 03:23:30;;;;;;;;;;;;;;;;;;;;;
2021/11/19 03:27:14;;;;;;;11.20;7.50;;;;;;;9.56;100.00;101774.85;102732;1315;61637;-81
2021/11/19 03:30:25;;;;;;;12.60;7.00;;;;;;;9.57;100.00;101773.37;102442;1316;75218;-82
2021/11/19 03:33:17;;;;;;;17.60;9.20;;;;;;;9.58;100.00;101770.08;102654;1318;72396;-79
2021/11/19 03:36:07;;;;;;;14.60;8.20;;;;;;;9.60;100.00;101767.98;102698;1316;74008;-78
2021/11/19 03:38:59;;;;;;;14.10;7.00;;;;;;;9.61;100.00;101773.39;102842;1315;63406;-76
2021/11/19 03:42:12;;;;;;;13.30;7.50;;;;;;;9.62;100.00;101778.34;102720;1315;61252;-76
2021/11/19 03:45:21;;;;;;;13.30;8.10;;;;;;;9.62;100.00;101773.45;103390;1315;75126;-80
2021/11/19 03:48:21;;;;;;;12.30;8.80;;;;;;;9.62;100.00;101771.82;102613;1318;72893;-80
2021/11/19 03:51:58;;;;;;;10.40;6.30;;;;;;;9.63;100.00;101768.79;102533;1316;72924;-77
2021/11/19 03:54:53;;;;;;;;;;;;;;;;;;;;;
2021/11/19 03:58:13;;;;;;;;;;;;;;;;;;;;;
2021/11/19 04:00:51;;;;;;;11.80;7.50;;;;;;;9.64;100.00;101777.65;102815;1316;74933;-76
2021/11/19 04:04:11;;;;;;;11.00;6.70;;;;;;;9.62;100.00;101781.85;102712;1315;71125;-79
2021/11/19 04:06:59;;;;;;;;;;;;;;;;;;;;;
2021/11/19 04:09:51;;;;;;;12.80;7.20;;;;;;;9.63;100.00;101781.08;102872;1315;62341;-76
2021/11/19 04:12:45;;;;;;;13.00;7.50;;;;;;;9.63;100.00;101789.05;103293;1315;61271;-79
2021/11/19 04:15:48;;;;;;;;;;;;;;;;;;;;;
2021/11/19 04:18:26;;;;;;;11.70;6.30;;;;;;;9.65;100.00;101792.57;102574;1316;72267;-78
2021/11/19 04:20:56;;;;;;;14.70;7.60;;;;;;;9.65;100.00;101793.98;102805;1316;73961;-79
2021/11/19 04:23:48;;;;;;;13.50;7.50;;;;;;;9.65;100.00;101796.67;102797;1316;62117;-79
2021/11/19 04:26:34;;;;;;;13.10;8.00;;;;;;;9.66;100.00;101795.55;102448;1316;61448;-76
2021/11/19 04:29:52;;;;;;;14.30;8.20;;;;;;;9.65;100.00;101789.25;102640;1317;75371;-75
2021/11/19 04:32:22;;;;;;;13.90;8.30;;;;;;;9.65;100.00;101791.67;103434;1315;71751;-78
2021/11/19 04:35:26;;;;;;;11.30;6.90;;;;;;;9.66;100.00;101798.14;102746;1316;73035;-79
2021/11/19 04:37:58;;;;;;;14.70;7.30;;;;;;;9.67;100.00;101797.17;102698;1316;63450;-78
2021/11/19 04:40:25;;;;;;;14.00;7.60;;;;;;;9.68;100.00;101800.83;102880;1315;61443;-77
2021/11/19 04:43:12;;;;;;;10.60;6.40;;;;;;;9.67;100.00;101804.56;102614;1316;74970;-77
2021/11/19 04:46:31;;;;;;;12.90;8.10;;;;;;;9.67;100.00;101803.89;102939;1315;71407;-80
2021/11/19 04:48:56;;;;;;;15.70;7.60;;;;;;;9.68;100.00;101805.41;102586;1315;73165;-77
2021/11/19 04:51:59;;;;;;;;;;;;;;;;;;;;;
2021/11/19 04:55:08;;;;;;;15.70;9.00;;;;;;;9.70;100.00;101816.64;102604;1315;61360;-76
2021/11/19 04:58:06;;;;;;;12.40;7.20;;;;;;;9.72;100.00;101817.77;102713;1315;76105;-78
2021/11/19 05:00:54;;;;;;;;;;;;;;;;;;;;;
2021/11/19 05:03:28;;;;;;;14.40;9.40;;;;;;;9.75;100.00;101815.65;102774;1315;74417;-80
2021/11/19 05:06:01;;;;;;;15.00;7.60;;;;;;;9.77;100.00;101813.04;103217;1316;63287;-77
2021/11/19 05:09:12;;;;;;;15.20;8.40;;;;;;;9.79;100.00;101816.73;104383;1315;61453;-76
2021/11/19 05:12:29;;;;;;;19.20;10.20;;;;;;;9.80;100.00;101828.64;102703;1316;75948;-80
2021/11/19 05:15:52;;;;;;;14.40;7.70;;;;;;;9.84;100.00;101817.36;102689;1315;71641;-80
2021/11/19 05:18:15;;;;;;;20.70;9.80;;;;;;;9.85;100.00;101815.29;102862;1316;72588;-78
2021/11/19 05:21:44;;;;;;;19.40;10.00;;;;;;;9.86;100.00;101817.11;102863;1315;62807;-76
2021/11/19 05:24:32;;;;;;;19.00;9.70;;;;;;;9.86;100.00;101809.35;102927;1318;63640;-81
2021/11/19 05:27:29;;;;;;;19.30;11.00;;;;;;;9.86;100.00;101812.36;102714;1318;74997;-78
2021/11/19 05:30:55;;;;;;;;;;;;;;;;;;;;;
2021/11/19 05:34:13;;;;;;;17.50;10.20;;;;;;;9.86;100.00;101814.54;102583;1314;71965;-76
2021/11/19 05:37:41;;;;;;;17.50;10.20;;;;;;;9.85;100.00;101810.16;102681;1315;62234;-80
2021/11/19 05:40:10;;;;;;;20.40;10.40;;;;;;;9.85;100.00;101815.67;102585;1313;61282;-76
2021/11/19 05:42:53;;;;;;;19.50;9.60;;;;;;;9.84;100.00;101813.59;103944;1318;76798;-77
2021/11/19 05:46:02;;;;;;;20.80;9.80;;;;;;;9.84;100.00;101818.22;103309;1315;72465;-78
2021/11/19 05:48:49;;;;;;;19.80;12.10;;;;;;;9.83;100.00;101813.86;102646;1315;74094;-80
2021/11/19 05:51:40;;;;;;;16.10;9.30;;;;;;;9.83;100.00;101815.47;102859;1317;62044;-80
2021/11/19 05:55:02;;;;;;;;;;;;;;;;;;;;;
2021/11/19 05:58:10;;;;;;;18.40;10.70;;;;;;;9.83;100.00;101824.14;102837;1317;75090;-79
2021/11/19 06:01:33;;;;;;;;;;;;;;;;;;;;;
2021/11/19 06:04:59;;;;;;;;;;;;;;;;;;;;;
2021/11/19 06:07:37;;;;;;;20.60;11.00;;;;;;;9.83;100.00;101835.33;103266;1315;61382;-79
2021/11/19 06:11:05;;;;;;;22.30;11.00;;;;;;;9.83;100.00;101838.11;102934;1316;61587;-82
2021/11/19 06:13:51;;;;;;;;;;;;;;;;;;;;;
2021/11/19 06:16:54;;;;;;;20.30;10.80;;;;;;;9.84;100.00;101843.34;102978;1318;72917;-78
2021/11/19 06:20:14;;;;;;;18.70;11.00;;;;;;;9.85;100.00;101845.31;102802;1315;74099;-78
2021/11/19 06:23:26;;;;;;;21.30;11.00;;;;;;;9.86;100.00;101843.33;102809;1318;64687;-79
2021/11/19 06:26:54;;;;;;;21.70;11.90;;;;;;;9.86;100.00;101847.89;98925;1318;5539704;-80
2021/11/19 06:30:21;;;;;;;14.80;8.20;;;;;;;9.87;100.00;101846.09;102828;1316;75083;-79
2021/11/19 06:33:43;;;;;;;19.70;10.60;;;;;;;9.86;100.00;101848.27;102483;1318;72703;-79
2021/11/19 06:36:33;;;;;;;;;;;;;;;;;;;;;
2021/11/19 06:39:41;;;;;;;;;;;;;;;;;;;;;
2021/11/19 06:42:20;;;;;;;21.50;12.80;;;;;;;9.91;100.00;101841.98;102481;1318;61219;-77
2021/11/19 06:45:48;;;;;;;22.70;13.00;;;;;;;9.91;100.00;101836.46;102270;1318;74254;-79
2021/11/19 06:49:15;;;;;;;18.40;10.80;;;;;;;9.92;100.00;101845.60;102271;1316;71502;-79
2021/11/19 06:52:29;;;;;;;17.90;9.40;;;;;;;9.90;100.00;101836.91;102468;1319;72995;-79
2021/11/19 06:55:58;;;;;;;24.60;13.30;;;;;;;9.89;100.00;101840.86;102335;1313;62328;-79
2021/11/19 06:58:34;;;;;;;;;;;;;;;;;;;;;
2021/11/19 07:02:12;;;;;;;23.70;12.70;;;;;;;9.92;100.00;101843.98;102405;1316;75773;-79
2021/11/19 07:05:06;;;;;;;22.90;12.00;;;;;;;9.94;100.00;101844.34;102308;1318;72672;-77
2021/11/19 07:08:33;;;;;;;18.90;10.60;;;;;;;9.95;100.00;101852.22;102513;1316;72673;-77
2021/11/19 07:11:44;;;;;;;22.00;12.70;;;;;;;9.97;100.00;101853.81;102459;1316;62299;-77
2021/11/19 07:18:18;;;;;;;;;;;;;;;10.03;100.00;101848.63;102478;1318;75088;-78
2021/11/19 07:21:25;;;;;;;;;;;;;;;10.04;100.00;101857.55;102556;1318;72528;-81
2021/11/19 07:24:33;;;;;;;;;;;;;;;10.05;100.00;101853.54;102571;1318;73660;-78
2021/11/19 07:27:39;;;;;;;;;;;;;;;10.07;100.00;101849.79;103034;1316;64438;-80
2021/11/19 07:30:46;;;;;;;;;;;;;;;10.08;100.00;101844.92;103154;1317;60796;-79
2021/11/19 07:34:13;;;;;;;;;;;;;;;;;;;;;
2021/11/19 07:37:33;;;;;;;;;;;;;;;;;;;;;
2021/11/19 07:40:34;;;;;;;;;;;;;;;;;;;;;
2021/11/19 07:43:33;;;;;;;;;;;;;;;;;;;;;
2021/11/19 07:47:02;;;;;;;17.40;9.70;;;;;;;10.28;100.00;101865.09;102627;1318;61284;-80
2021/11/19 07:50:12;;;;;;;16.90;9.40;;;;;;;10.32;100.00;101863.80;102685;1318;75485;-79
2021/11/19 07:53:39;;;;;;;16.80;8.20;;;;;;;10.36;100.00;101865.67;102475;1318;71441;-78
2021/11/19 07:56:46;;;;;;;13.10;7.90;;;;;;;10.41;100.00;101865.23;102415;1316;74037;-79
2021/11/19 07:59:54;;;;;;;;;;;;;;;;;;;;;
2021/11/19 08:02:21;;;;;;;12.20;7.30;;;;;;;10.50;100.00;101867.79;102537;1318;61726;-78
2021/11/19 08:05:39;;;;;;;16.90;9.60;;;;;;;10.53;100.00;101872.98;102224;1316;75760;-77
2021/11/19 08:08:40;;;;;;;13.10;6.90;;;;;;;10.57;100.00;101875.23;102178;1318;72572;-77
2021/11/19 08:11:27;;;;;;;12.10;7.00;;;;;;;10.61;100.00;101879.58;102271;1316;73973;-77
2021/11/19 08:14:31;;;;;;;14.00;7.20;;;;;;;10.67;100.00;101880.27;102129;1319;61878;-77
2021/11/19 08:17:56;;;;;;;11.10;6.50;;;;;;;10.75;100.00;101874.97;102155;1316;61421;-77
2021/11/19 08:21:17;;;;;;;;;;;;;;;;;;;;;
2021/11/19 08:24:28;;;;;;;10.20;6.60;;;;;;;10.86;100.00;101872.28;101557;1325;72937;-80
2021/11/19 08:27:19;;;;;;;10.60;6.30;;;;;;;10.89;100.00;101872.13;101507;1324;73014;-77
2021/11/19 08:30:32;;;;;;;12.40;6.20;;;;;;;10.91;100.00;101872.54;101373;1327;61432;-77
2021/11/19 08:34:00;;;;;;;8.20;4.70;;;;;;;10.90;100.00;101876.83;101778;1325;61385;-78
2021/11/19 08:37:26;;;;;;;10.70;6.20;;;;;;;10.90;99.87;101873.33;101539;1328;77059;-78
2021/11/19 08:40:43;;;;;;;;;;;;;;;;;;;;;
2021/11/19 08:44:00;;;;;;;;;;;;;;;;;;;;;
2021/11/19 08:47:25;;;;;;;11.20;6.50;;;;;;;10.86;99.83;101878.52;101737;1325;63627;-77
2021/11/19 08:50:33;;;;;;;9.80;5.10;;;;;;;10.84;99.96;101882.19;102133;1316;61304;-77
2021/11/19 08:54:01;;;;;;;9.00;5.30;;;;;;;10.84;100.00;101885.77;102249;1317;74977;-77
2021/11/19 08:57:35;;;;;;;8.70;4.70;;;;;;;10.85;99.95;101889.05;102194;1317;72833;-78
2021/11/19 09:00:51;;;;;;;;;;;;;;;;;;;;;
2021/11/19 09:04:03;;;;;;;8.10;5.00;;;;;;;10.87;99.50;101891.88;102277;1316;63007;-79
2021/11/19 09:07:11;;;;;;;9.10;4.70;;;;;;;10.87;99.48;101890.64;102424;1315;62654;-78
2021/11/19 09:10:17;;;;;;;8.90;5.80;;;;;;;10.87;99.32;101891.27;102376;1316;75938;-77
2021/11/19 09:13:10;;;;;;;10.80;6.60;;;;;;;10.88;99.25;101891.23;102211;1317;72260;-77
2021/11/19 09:16:13;;;;;;;;;;;;;;;;;;;;;
2021/11/19 09:20:00;;;;;;;14.40;7.80;;;;;;;10.94;98.86;101882.16;102258;1316;62285;-78
2021/11/19 09:23:47;;;;;;;13.80;7.10;;;;;;;10.95;98.52;101885.77;101447;1324;61515;-78
2021/11/19 09:27:09;;;;;;;14.80;8.00;;;;;;;10.96;98.20;101896.39;100827;1333;75773;-78
2021/11/19 09:30:05;;;;;;;8.80;5.40;;;;;;;10.98;98.08;101900.13;100877;1333;72658;-78
2021/11/19 09:32:35;;;;;;;13.00;8.10;;;;;;;11.00;97.91;101899.59;101523;1327;74606;-77
2021/11/19 09:35:45;;;;;;;13.30;7.70;;;;;;;11.04;97.58;101905.05;102156;1317;63592;-78
2021/11/19 09:38:53;;;;;;;11.10;7.20;;;;;;;11.13;97.52;101899.96;102213;1316;61415;-77
2021/11/19 09:46:14;;;;;;;;;;;;;;;;;;;;;
2021/11/19 09:49:52;;;;;;;12.90;7.60;;;;;;;11.18;96.24;101909.77;102250;1318;72909;-78
2021/11/19 09:52:46;;;;;;;;;;;;;;;;;;;;;
2021/11/19 09:55:41;;;;;;;11.10;6.80;;;;;;;11.29;95.35;101907.11;102383;1317;61219;-77
2021/11/19 09:59:12;;;;;;;10.60;7.30;;;;;;;11.33;94.68;101898.02;102109;1317;74073;-78
2021/11/19 10:02:38;;;;;;;12.40;6.90;;;;;;;11.38;94.46;101903.15;101532;1324;73057;-78
2021/11/19 10:06:14;;;;;;;9.40;5.90;;;;;;;11.42;94.17;101893.58;102194;1318;73085;-76
2021/11/19 10:09:39;;;;;;;14.80;7.60;;;;;;;11.47;93.54;101902.13;102201;1318;64376;-77
2021/11/19 10:12:48;;;;;;;12.00;7.50;;;;;;;11.53;93.47;101891.45;102272;1318;62988;-78
2021/11/19 10:15:36;;;;;;;;;;;;;;;;;;;;;
2021/11/19 10:19:10;;;;;;;7.50;4.60;;;;;;;11.60;92.95;101894.14;102322;1316;72325;-78
2021/11/19 10:21:52;;;;;;;12.10;6.90;;;;;;;11.61;92.34;101885.67;101942;1318;72656;-77
2021/11/19 10:24:47;;;;;;;10.40;6.80;;;;;;;11.61;91.80;101891.71;102601;1318;62369;-78
2021/11/19 10:28:09;;;;;;;12.60;7.60;;;;;;;11.65;91.79;101881.75;102242;1316;62022;-78
2021/11/19 10:31:39;;;;;;;10.20;6.80;;;;;;;11.69;91.83;101878.90;102118;1316;76321;-77
2021/11/19 10:35:05;;;;;;;13.90;7.50;;;;;;;11.72;91.39;101880.35;101982;1319;71434;-78
2021/11/19 10:37:57;;;;;;;12.60;7.90;;;;;;;11.78;91.21;101875.63;102138;1317;73952;-79
2021/11/19 10:41:34;;;;;;;10.30;5.30;;;;;;;11.82;90.90;101871.16;102164;1318;62597;-76
2021/11/19 10:44:05;;;;;;;9.90;5.90;;;;;;;11.87;90.35;101881.20;102125;1318;61331;-76
2021/11/19 10:47:22;;;;;;;;;;;;;;;;;;;;;
2021/11/19 10:50:20;;;;;;;12.90;7.50;;;;;;;11.85;89.57;101883.09;102263;1316;71634;-76
2021/11/19 10:53:08;;;;;;;10.80;6.90;;;;;;;11.85;89.54;101874.96;102254;1317;72899;-79
2021/11/19 10:56:28;;;;;;;;;;;;;;;;;;;;;
2021/11/19 10:59:44;;;;;;;9.30;6.50;;;;;;;11.92;89.81;101871.10;102317;1316;61303;-76
2021/11/19 11:02:39;;;;;;;13.10;7.30;;;;;;;11.95;89.00;101877.52;102565;1316;75198;-76
2021/11/19 11:05:34;;;;;;;9.10;5.90;;;;;;;11.95;88.68;101886.98;102414;1318;72408;-78
2021/11/19 11:09:08;;;;;;;17.40;8.10;;;;;;;11.94;88.43;101878.32;102302;1318;72723;-79
2021/11/19 11:12:00;;;;;;;13.90;7.90;;;;;;;11.94;88.15;101871.59;102035;1319;61385;-76
2021/11/19 11:15:10;;;;;;;;;;;;;;;;;;;;;
2021/11/19 11:18:07;;;;;;;;;;;;;;;;;;;;;
2021/11/19 11:21:11;;;;;;;;;;;;;;;;;;;;;
2021/11/19 11:24:22;;;;;;;11.70;7.50;;;;;;;12.01;88.16;101868.55;102305;1318;73677;-75
2021/11/19 11:27:27;;;;;;;11.60;7.30;;;;;;;12.05;87.03;101861.63;102319;1317;61366;-78
2021/11/19 11:30:18;;;;;;;11.90;5.90;;;;;;;12.12;87.36;101848.90;102338;1315;61698;-78
2021/11/19 11:33:08;;;;;;;11.20;6.80;;;;;;;12.20;86.64;101859.38;102307;1319;75156;-77
2021/11/19 11:35:46;;;;;;;13.00;6.10;;;;;;;12.24;85.45;101856.52;102371;1316;71631;-77
2021/11/19 11:38:28;;;;;;;11.40;6.60;;;;;;;12.28;85.47;101853.45;102344;1316;72972;-76
2021/11/19 11:41:53;;;;;;;10.60;6.50;;;;;;;12.29;85.10;101853.86;102320;1317;62371;-77
2021/11/19 11:44:41;;;;;;;8.50;5.10;;;;;;;12.31;84.73;101859.52;101489;1328;61553;-76
2021/11/19 11:47:31;;;;;;;14.40;6.30;;;;;;;12.32;84.46;101859.09;101787;1326;76327;-79
2021/11/19 11:50:26;;;;;;;;;;;;;;;;;;;;;
2021/11/19 11:53:47;;;;;;;8.90;6.20;;;;;;;12.30;84.49;101863.04;102365;1317;74070;-74
2021/11/19 11:56:33;;;;;;;10.40;6.30;;;;;;;12.27;84.68;101856.94;102317;1318;64286;-77
2021/11/19 11:59:26;;;;;;;10.40;5.20;;;;;;;12.22;84.60;101858.25;102420;1316;61286;-75
2021/11/19 12:02:48;;;;;;;10.20;6.40;;;;;;;12.21;85.07;101863.73;102356;1316;76750;-80
2021/11/19 12:05:28;;;;;;;13.60;7.50;;;;;;;12.18;84.69;101860.95;102745;1315;73056;-78
2021/11/19 12:08:41;;;;;;;14.40;7.40;;;;;;;12.15;84.92;101865.58;102448;1316;73025;-76
2021/11/19 12:11:28;;;;;;;11.00;6.10;;;;;;;12.11;85.27;101857.82;102416;1318;62440;-78
2021/11/19 12:14:24;;;;;;;;;;;;;;;;;;;;;
2021/11/19 12:17:31;;;;;;;9.30;5.70;;;;;;;12.04;85.65;101856.97;102510;1315;75031;-77
2021/11/19 12:20:40;;;;;;;10.60;6.30;;;;;;;11.97;85.77;101854.16;102257;1318;72875;-76
2021/11/19 12:23:37;;;;;;;10.40;6.20;;;;;;;11.95;86.07;101845.58;102390;1319;74123;-77
2021/11/19 12:27:09;;;;;;;;;;;;;;;;;;;;;
2021/11/19 12:30:18;;;;;;;11.70;6.10;;;;;;;11.95;85.50;101853.64;102745;1315;61295;-75
2021/11/19 12:33:15;;;;;;;10.10;6.10;;;;;;;11.94;85.53;101854.21;101564;1327;76032;-76
2021/11/19 12:36:12;;;;;;;11.20;5.90;;;;;;;11.96;85.53;101852.25;101612;1327;72796;-78
2021/11/19 12:38:42;;;;;;;9.50;6.30;;;;;;;12.01;85.83;101854.63;102189;1318;72915;-77
2021/11/19 12:41:33;;;;;;;10.80;6.00;;;;;;;12.00;85.36;101856.24;102260;1321;62616;-76
2021/11/19 12:45:03;;;;;;;13.40;7.10;;;;;;;12.01;85.33;101859.20;102389;1317;61653;-75
2021/11/19 12:48:03;;;;;;;9.10;5.70;;;;;;;12.07;85.30;101858.80;102240;1317;75093;-77
2021/11/19 12:50:56;;;;;;;16.00;6.60;;;;;;;12.09;85.37;101854.11;102387;1318;70854;-79
2021/11/19 12:53:40;;;;;;;13.20;6.80;;;;;;;12.10;85.19;101849.66;102384;1317;72871;-79
2021/11/19 12:56:21;;;;;;;12.30;6.50;;;;;;;12.08;85.15;101852.84;102794;1318;62400;-77
2021/11/19 12:59:21;;;;;;;12.70;6.50;;;;;;;12.07;85.30;101846.52;102455;1316;61700;-78
2021/11/19 13:02:19;;;;;;;15.30;8.70;;;;;;;12.06;84.92;101846.31;102326;1317;75914;-77
2021/11/19 13:05:14;;;;;;;12.90;7.60;;;;;;;12.08;85.24;101844.89;102383;1317;71565;-77
2021/11/19 13:08:16;;;;;;;14.90;7.90;;;;;;;12.06;84.96;101850.34;102285;1316;74293;-76
2021/11/19 13:10:48;;;;;;;13.00;6.40;;;;;;;12.03;85.02;101846.09;102423;1316;62070;-77
2021/11/19 13:13:23;;;;;;;16.30;7.20;;;;;;;12.02;85.24;101844.38;102373;1318;61618;-78
2021/11/19 13:15:59;;;;;;;14.50;8.20;;;;;;;12.02;85.30;101843.29;102482;1318;75157;-77
2021/11/19 13:18:44;;;;;;;12.40;7.60;;;;;;;12.02;85.27;101841.70;102447;1318;72446;-76
2021/11/19 13:21:38;;;;;;;13.60;7.50;;;;;;;12.04;85.19;101842.35;102273;1319;72865;-78
2021/11/19 13:24:14;;;;;;;13.30;6.90;;;;;;;12.03;85.10;101838.92;102371;1319;63466;-77
2021/11/19 13:26:57;;;;;;;14.90;7.60;;;;;;;12.01;85.22;101849.10;102430;1315;61735;-76
2021/11/19 13:30:10;;;;;;;17.50;8.20;;;;;;;12.00;85.15;101852.34;102292;1318;75004;-78
2021/11/19 13:32:36;;;;;;;13.30;7.30;;;;;;;11.97;85.37;101859.64;102572;1316;70436;-77
2021/11/19 13:35:02;;;;;;;11.70;8.00;;;;;;;11.93;85.61;101856.77;102597;1317;73919;-79
2021/11/19 13:38:10;;;;;;;16.50;8.70;;;;;;;11.90;85.83;101851.78;102446;1318;61707;-77
2021/11/19 13:40:45;;;;;;;10.70;7.00;;;;;;;11.84;85.93;101849.88;102192;1319;61930;-75
2021/11/19 13:43:21;;;;;;;11.30;7.40;;;;;;;11.81;86.18;101845.00;102253;1318;76437;-76
2021/11/19 13:45:47;;;;;;;11.80;7.50;;;;;;;11.75;86.25;101842.41;102354;1317;71664;-79
2021/11/19 13:49:13;;;;;;;11.40;7.00;;;;;;;11.74;86.75;101836.93;102469;1318;71981;-79
2021/11/19 13:51:43;;;;;;;16.60;8.40;;;;;;;11.70;86.97;101841.91;102251;1318;62436;-76
2021/11/19 13:54:52;;;;;;;13.70;8.00;;;;;;;11.67;86.78;101848.05;102484;1316;61779;-78
2021/11/19 13:57:33;;;;;;;17.30;9.40;;;;;;;11.66;87.16;101858.08;102325;1318;73982;-78
2021/11/19 14:00:32;;;;;;;19.50;9.70;;;;;;;11.64;87.25;101859.99;102358;1318;71563;-78
2021/11/19 14:02:59;;;;;;;17.60;9.00;;;;;;;11.64;87.43;101849.75;102494;1316;72736;-78
2021/11/19 14:05:48;;;;;;;14.90;9.20;;;;;;;11.62;87.49;101866.39;102460;1315;63124;-79
2021/11/19 14:08:24;;;;;;;14.90;6.90;;;;;;;11.61;87.87;101863.74;102486;1318;62130;-78
2021/11/19 14:11:23;;;;;;;;;;;;;;;;;;;;;
2021/11/19 14:13:54;;;;;;;17.20;8.10;;;;;;;11.56;88.25;101867.56;102390;1318;71712;-80
2021/11/19 14:16:25;;;;;;;16.90;9.80;;;;;;;11.53;88.70;101867.49;102543;1318;72953;-77
2021/11/19 14:19:48;;;;;;;12.60;7.60;;;;;;;11.48;89.15;101879.31;102185;1321;61505;-80
2021/11/19 14:22:36;;;;;;;15.70;7.20;;;;;;;11.42;89.51;101879.20;102220;1317;61329;-76
2021/11/19 14:25:25;;;;;;;;;;;;;;;;;;;;;
2021/11/19 14:28:01;;;;;;;14.50;9.20;;;;;;;11.34;90.31;101867.48;102202;1318;71466;-78
2021/11/19 14:30:45;;;;;;;17.00;9.40;;;;;;;11.32;90.53;101869.95;102185;1322;72905;-78
2021/11/19 14:33:29;;;;;;;14.00;6.80;;;;;;;11.30;90.62;101881.64;102160;1316;62077;-78
2021/11/19 14:36:20;;;;;;;13.00;8.20;;;;;;;11.28;90.68;101884.14;102297;1316;62846;-78
2021/11/19 14:39:12;;;;;;;13.20;6.30;;;;;;;11.28;90.67;101880.28;102272;1316;75924;-77
2021/11/19 14:41:47;;;;;;;15.00;9.00;;;;;;;11.27;90.55;101878.71;102324;1318;72490;-76
2021/11/19 14:45:17;;;;;;;18.20;8.40;;;;;;;11.28;89.99;101878.11;102228;1320;74026;-80
2021/11/19 14:48:28;;;;;;;14.00;8.60;;;;;;;11.29;90.01;101874.67;102210;1322;62480;-78
2021/11/19 14:51:16;;;;;;;;;;;;;;;;;;;;;
2021/11/19 14:54:35;;;;;;;16.20;9.30;;;;;;;11.29;89.77;101877.53;102219;1320;76154;-76
2021/11/19 14:57:30;;;;;;;13.70;8.00;;;;;;;11.26;89.91;101877.06;102076;1317;72449;-80
2021/11/19 15:00:00;;;;;;;21.50;10.60;;;;;;;11.24;90.02;101881.67;102131;1316;73132;-77
2021/11/19 15:03:30;;;;;;;16.00;9.90;;;;;;;11.24;90.06;101888.11;102208;1316;63001;-79
2021/11/19 15:06:59;;;;;;;;;;;;;;;;;;;;;
2021/11/19 15:10:11;;;;;;;14.40;8.30;;;;;;;11.22;89.97;101879.38;102137;1320;76061;-79
2021/11/19 15:12:51;;;;;;;14.70;8.50;;;;;;;11.21;89.93;101879.52;102330;1317;71158;-78
2021/11/19 15:16:01;;;;;;;16.40;9.70;;;;;;;11.22;89.92;101876.91;102331;1316;73962;-77
2021/11/19 15:19:04;;;;;;;13.50;8.50;;;;;;;11.20;89.32;101888.40;102272;1317;61357;-76
2021/11/19 15:22:00;;;;;;;18.10;9.50;;;;;;;11.20;89.02;101876.95;101370;1330;61328;-77
2021/11/19 15:24:45;;;;;;;13.80;8.40;;;;;;;11.19;88.99;101873.48;102298;1316;76092;-78
2021/11/19 15:27:50;;;;;;;12.60;7.40;;;;;;;11.19;89.13;101871.36;102198;1318;72780;-79
2021/11/19 15:30:31;;;;;;;15.30;8.70;;;;;;;11.19;89.11;101874.38;102191;1316;73989;-78
2021/11/19 15:33:30;;;;;;;21.60;9.20;;;;;;;11.18;89.34;101872.34;102296;1316;63080;-78
2021/11/19 15:36:37;;;;;;;15.80;9.80;;;;;;;11.16;89.33;101867.40;102141;1320;61475;-78
2021/11/19 15:39:34;;;;;;;11.60;5.80;;;;;;;11.15;89.64;101870.19;102228;1321;74058;-77
2021/11/19 15:42:04;;;;;;;13.00;9.40;;;;;;;11.14;89.74;101877.18;102149;1317;72954;-79
2021/11/19 15:45:12;;;;;;;;;;;;;;;;;;;;;